sensor_id;sensor_type;location;lat;lon;timestamp;temperature;humidity
80230;DHT22;69540;42.136;24.742;2023-07-24T00:01:17;32.40;28.70
80230;DHT22;69540;42.136;24.742;2023-07-24T00:03:44;32.30;28.60
80230;DHT22;69540;42.136;24.742;2023-07-24T00:06:09;32.40;28.70
80230;DHT22;69540;42.136;24.742;2023-07-24T00:08:35;32.40;28.70
80230;DHT22;69540;42.136;24.742;2023-07-24T00:11:01;32.40;28.70
80230;DHT22;69540;42.136;24.742;2023-07-24T00:13:28;32.30;28.60
80230;DHT22;69540;42.136;24.742;2023-07-24T00:15:54;32.30;28.60
80230;DHT22;69540;42.136;24.742;2023-07-24T00:18:19;32.40;28.70
80230;DHT22;69540;42.136;24.742;2023-07-24T00:20:45;32.40;28.70
80230;DHT22;69540;42.136;24.742;2023-07-24T00:23:10;32.30;28.70
80230;DHT22;69540;42.136;24.742;2023-07-24T00:25:37;32.30;28.60
80230;DHT22;69540;42.136;24.742;2023-07-24T00:28:03;32.40;28.70
80230;DHT22;69540;42.136;24.742;2023-07-24T00:30:28;32.30;28.60
80230;DHT22;69540;42.136;24.742;2023-07-24T00:32:54;32.30;28.60
80230;DHT22;69540;42.136;24.742;2023-07-24T00:35:19;32.30;28.60
80230;DHT22;69540;42.136;24.742;2023-07-24T00:37:45;32.30;28.60
80230;DHT22;69540;42.136;24.742;2023-07-24T00:40:11;32.30;28.60
80230;DHT22;69540;42.136;24.742;2023-07-24T00:42:37;32.30;28.70
80230;DHT22;69540;42.136;24.742;2023-07-24T00:45:03;32.30;28.70
80230;DHT22;69540;42.136;24.742;2023-07-24T00:47:28;32.30;28.60
80230;DHT22;69540;42.136;24.742;2023-07-24T00:49:54;32.30;28.60
80230;DHT22;69540;42.136;24.742;2023-07-24T00:52:21;32.30;28.70
80230;DHT22;69540;42.136;24.742;2023-07-24T00:54:46;32.30;28.70
80230;DHT22;69540;42.136;24.742;2023-07-24T00:57:12;32.30;28.70
80230;DHT22;69540;42.136;24.742;2023-07-24T00:59:38;32.30;28.70
80230;DHT22;69540;42.136;24.742;2023-07-24T01:02:04;32.30;28.70
80230;DHT22;69540;42.136;24.742;2023-07-24T01:04:30;32.30;28.70
80230;DHT22;69540;42.136;24.742;2023-07-24T01:06:56;32.30;28.70
80230;DHT22;69540;42.136;24.742;2023-07-24T01:09:22;32.30;28.70
80230;DHT22;69540;42.136;24.742;2023-07-24T01:11:53;32.30;28.70
80230;DHT22;69540;42.136;24.742;2023-07-24T01:14:26;32.30;28.70
80230;DHT22;69540;42.136;24.742;2023-07-24T01:16:56;32.30;28.70
80230;DHT22;69540;42.136;24.742;2023-07-24T01:19:41;32.40;28.80
80230;DHT22;69540;42.136;24.742;2023-07-24T01:24:48;32.30;28.70
80230;DHT22;69540;42.136;24.742;2023-07-24T01:27:23;32.30;28.70
80230;DHT22;69540;42.136;24.742;2023-07-24T01:29:49;32.30;28.70
80230;DHT22;69540;42.136;24.742;2023-07-24T01:32:15;32.30;28.70
80230;DHT22;69540;42.136;24.742;2023-07-24T01:34:40;32.30;28.70
80230;DHT22;69540;42.136;24.742;2023-07-24T01:37:06;32.30;28.70
80230;DHT22;69540;42.136;24.742;2023-07-24T01:39:33;32.30;28.80
80230;DHT22;69540;42.136;24.742;2023-07-24T01:42:00;32.30;28.80
80230;DHT22;69540;42.136;24.742;2023-07-24T01:44:26;32.30;28.80
80230;DHT22;69540;42.136;24.742;2023-07-24T01:46:51;32.30;28.80
80230;DHT22;69540;42.136;24.742;2023-07-24T01:49:17;32.30;28.80
80230;DHT22;69540;42.136;24.742;2023-07-24T01:51:43;32.30;28.80
80230;DHT22;69540;42.136;24.742;2023-07-24T01:54:09;32.30;28.80
80230;DHT22;69540;42.136;24.742;2023-07-24T01:56:36;32.30;28.80
80230;DHT22;69540;42.136;24.742;2023-07-24T01:59:02;32.30;28.80
80230;DHT22;69540;42.136;24.742;2023-07-24T02:01:28;32.30;28.80
80230;DHT22;69540;42.136;24.742;2023-07-24T02:03:54;32.30;28.80
80230;DHT22;69540;42.136;24.742;2023-07-24T02:06:19;32.30;28.90
80230;DHT22;69540;42.136;24.742;2023-07-24T02:08:45;32.30;28.90
80230;DHT22;69540;42.136;24.742;2023-07-24T02:11:15;32.30;28.90
80230;DHT22;69540;42.136;24.742;2023-07-24T02:13:43;32.30;28.90
80230;DHT22;69540;42.136;24.742;2023-07-24T02:16:09;32.30;28.90
80230;DHT22;69540;42.136;24.742;2023-07-24T02:18:36;32.30;28.90
80230;DHT22;69540;42.136;24.742;2023-07-24T02:21:01;32.30;28.90
80230;DHT22;69540;42.136;24.742;2023-07-24T02:23:27;32.30;29.00
80230;DHT22;69540;42.136;24.742;2023-07-24T02:25:53;32.30;29.00
80230;DHT22;69540;42.136;24.742;2023-07-24T02:28:18;32.30;28.90
80230;DHT22;69540;42.136;24.742;2023-07-24T02:30:45;32.30;28.90
80230;DHT22;69540;42.136;24.742;2023-07-24T02:33:11;32.40;28.90
80230;DHT22;69540;42.136;24.742;2023-07-24T02:35:40;32.30;28.90
80230;DHT22;69540;42.136;24.742;2023-07-24T02:38:06;32.30;28.90
80230;DHT22;69540;42.136;24.742;2023-07-24T02:40:32;32.40;29.00
80230;DHT22;69540;42.136;24.742;2023-07-24T02:42:58;32.30;29.00
80230;DHT22;69540;42.136;24.742;2023-07-24T02:45:23;32.30;29.00
80230;DHT22;69540;42.136;24.742;2023-07-24T02:47:49;32.30;29.00
80230;DHT22;69540;42.136;24.742;2023-07-24T02:50:15;32.30;29.00
80230;DHT22;69540;42.136;24.742;2023-07-24T02:52:40;32.30;29.00
80230;DHT22;69540;42.136;24.742;2023-07-24T02:55:06;32.30;29.00
80230;DHT22;69540;42.136;24.742;2023-07-24T02:57:32;32.30;29.00
80230;DHT22;69540;42.136;24.742;2023-07-24T02:59:57;32.30;29.10
80230;DHT22;69540;42.136;24.742;2023-07-24T03:02:23;32.30;29.10
80230;DHT22;69540;42.136;24.742;2023-07-24T03:04:49;32.30;29.00
80230;DHT22;69540;42.136;24.742;2023-07-24T03:07:14;32.30;29.00
80230;DHT22;69540;42.136;24.742;2023-07-24T03:09:40;32.30;29.10
80230;DHT22;69540;42.136;24.742;2023-07-24T03:12:06;32.30;29.10
80230;DHT22;69540;42.136;24.742;2023-07-24T03:14:31;32.30;29.20
80230;DHT22;69540;42.136;24.742;2023-07-24T03:16:57;32.30;29.10
80230;DHT22;69540;42.136;24.742;2023-07-24T03:19:23;32.30;29.10
80230;DHT22;69540;42.136;24.742;2023-07-24T03:21:48;32.30;29.10
80230;DHT22;69540;42.136;24.742;2023-07-24T03:24:14;32.30;29.10
80230;DHT22;69540;42.136;24.742;2023-07-24T03:26:39;32.30;29.10
80230;DHT22;69540;42.136;24.742;2023-07-24T03:29:05;32.40;29.20
80230;DHT22;69540;42.136;24.742;2023-07-24T03:31:31;32.30;29.20
80230;DHT22;69540;42.136;24.742;2023-07-24T03:33:56;32.40;29.30
80230;DHT22;69540;42.136;24.742;2023-07-24T03:36:22;32.30;29.20
80230;DHT22;69540;42.136;24.742;2023-07-24T03:38:48;32.30;29.20
80230;DHT22;69540;42.136;24.742;2023-07-24T03:41:13;32.30;29.20
80230;DHT22;69540;42.136;24.742;2023-07-24T03:43:39;32.30;30.00
80230;DHT22;69540;42.136;24.742;2023-07-24T03:46:05;32.30;29.90
80230;DHT22;69540;42.136;24.742;2023-07-24T03:48:30;32.30;28.90
80230;DHT22;69540;42.136;24.742;2023-07-24T03:51:00;32.30;29.10
80230;DHT22;69540;42.136;24.742;2023-07-24T03:53:26;32.40;29.30
80230;DHT22;69540;42.136;24.742;2023-07-24T03:55:52;32.40;29.50
80230;DHT22;69540;42.136;24.742;2023-07-24T03:58:18;32.30;29.50
80230;DHT22;69540;42.136;24.742;2023-07-24T04:00:44;32.30;29.50
80230;DHT22;69540;42.136;24.742;2023-07-24T04:03:09;32.30;29.60
80230;DHT22;69540;42.136;24.742;2023-07-24T04:05:36;32.30;29.30
80230;DHT22;69540;42.136;24.742;2023-07-24T04:08:02;32.30;29.60
80230;DHT22;69540;42.136;24.742;2023-07-24T04:10:28;32.30;30.90
80230;DHT22;69540;42.136;24.742;2023-07-24T04:12:54;32.20;31.70
80230;DHT22;69540;42.136;24.742;2023-07-24T04:15:20;32.20;31.90
80230;DHT22;69540;42.136;24.742;2023-07-24T04:17:45;32.10;31.50
80230;DHT22;69540;42.136;24.742;2023-07-24T04:20:11;32.10;31.70
80230;DHT22;69540;42.136;24.742;2023-07-24T04:22:37;32.10;31.80
80230;DHT22;69540;42.136;24.742;2023-07-24T04:25:02;31.90;31.80
80230;DHT22;69540;42.136;24.742;2023-07-24T04:27:28;31.90;31.40
80230;DHT22;69540;42.136;24.742;2023-07-24T04:29:54;31.80;31.40
80230;DHT22;69540;42.136;24.742;2023-07-24T04:32:20;31.70;30.90
80230;DHT22;69540;42.136;24.742;2023-07-24T04:34:46;31.70;30.90
80230;DHT22;69540;42.136;24.742;2023-07-24T04:37:11;31.60;30.60
80230;DHT22;69540;42.136;24.742;2023-07-24T04:39:40;31.50;30.50
80230;DHT22;69540;42.136;24.742;2023-07-24T04:42:06;31.50;31.20
80230;DHT22;69540;42.136;24.742;2023-07-24T04:44:31;31.40;31.50
80230;DHT22;69540;42.136;24.742;2023-07-24T04:46:58;31.40;31.00
80230;DHT22;69540;42.136;24.742;2023-07-24T04:49:24;31.30;31.00
80230;DHT22;69540;42.136;24.742;2023-07-24T04:51:50;31.30;30.80
80230;DHT22;69540;42.136;24.742;2023-07-24T04:54:16;31.30;33.20
80230;DHT22;69540;42.136;24.742;2023-07-24T04:56:42;31.20;32.30
80230;DHT22;69540;42.136;24.742;2023-07-24T04:59:08;31.20;30.70
80230;DHT22;69540;42.136;24.742;2023-07-24T05:01:34;31.20;29.70
80230;DHT22;69540;42.136;24.742;2023-07-24T05:03:59;31.10;29.20
80230;DHT22;69540;42.136;24.742;2023-07-24T05:06:26;31.10;29.20
80230;DHT22;69540;42.136;24.742;2023-07-24T05:08:54;31.10;28.80
80230;DHT22;69540;42.136;24.742;2023-07-24T05:11:20;31.00;28.40
80230;DHT22;69540;42.136;24.742;2023-07-24T05:13:46;31.00;28.10
80230;DHT22;69540;42.136;24.742;2023-07-24T05:16:11;30.90;27.90
80230;DHT22;69540;42.136;24.742;2023-07-24T05:18:37;30.90;27.60
80230;DHT22;69540;42.136;24.742;2023-07-24T05:21:03;30.90;27.50
80230;DHT22;69540;42.136;24.742;2023-07-24T05:23:28;30.80;27.20
80230;DHT22;69540;42.136;24.742;2023-07-24T05:26:01;30.80;27.10
80230;DHT22;69540;42.136;24.742;2023-07-24T05:28:28;30.80;26.90
80230;DHT22;69540;42.136;24.742;2023-07-24T05:30:53;30.70;26.80
80230;DHT22;69540;42.136;24.742;2023-07-24T05:33:19;30.70;26.80
80230;DHT22;69540;42.136;24.742;2023-07-24T05:35:45;30.70;26.80
80230;DHT22;69540;42.136;24.742;2023-07-24T05:38:11;30.60;26.70
80230;DHT22;69540;42.136;24.742;2023-07-24T05:40:36;30.60;26.70
80230;DHT22;69540;42.136;24.742;2023-07-24T05:43:02;30.60;26.80
80230;DHT22;69540;42.136;24.742;2023-07-24T05:45:29;30.60;26.80
80230;DHT22;69540;42.136;24.742;2023-07-24T05:47:55;30.40;26.70
80230;DHT22;69540;42.136;24.742;2023-07-24T05:50:20;30.50;26.70
80230;DHT22;69540;42.136;24.742;2023-07-24T05:52:46;30.50;26.70
80230;DHT22;69540;42.136;24.742;2023-07-24T05:55:11;30.40;26.60
80230;DHT22;69540;42.136;24.742;2023-07-24T05:57:37;30.40;26.60
80230;DHT22;69540;42.136;24.742;2023-07-24T06:00:04;30.40;26.70
80230;DHT22;69540;42.136;24.742;2023-07-24T06:02:30;30.40;26.70
80230;DHT22;69540;42.136;24.742;2023-07-24T06:04:55;30.40;26.70
80230;DHT22;69540;42.136;24.742;2023-07-24T06:07:21;30.40;26.70
80230;DHT22;69540;42.136;24.742;2023-07-24T06:09:47;30.40;26.70
80230;DHT22;69540;42.136;24.742;2023-07-24T06:12:12;30.40;26.70
80230;DHT22;69540;42.136;24.742;2023-07-24T06:14:39;30.40;26.70
80230;DHT22;69540;42.136;24.742;2023-07-24T06:17:05;30.40;26.80
80230;DHT22;69540;42.136;24.742;2023-07-24T06:19:31;30.40;26.90
80230;DHT22;69540;42.136;24.742;2023-07-24T06:21:56;30.40;26.90
80230;DHT22;69540;42.136;24.742;2023-07-24T06:24:22;30.40;27.00
80230;DHT22;69540;42.136;24.742;2023-07-24T06:26:49;30.30;27.80
80230;DHT22;69540;42.136;24.742;2023-07-24T06:29:15;30.30;27.00
80230;DHT22;69540;42.136;24.742;2023-07-24T06:31:40;30.30;27.00
80230;DHT22;69540;42.136;24.742;2023-07-24T06:34:06;30.30;27.00
80230;DHT22;69540;42.136;24.742;2023-07-24T06:36:32;30.30;27.20
80230;DHT22;69540;42.136;24.742;2023-07-24T06:38:57;30.30;27.20
80230;DHT22;69540;42.136;24.742;2023-07-24T06:41:23;30.30;27.20
80230;DHT22;69540;42.136;24.742;2023-07-24T06:43:49;30.30;27.20
80230;DHT22;69540;42.136;24.742;2023-07-24T06:46:15;30.30;27.20
80230;DHT22;69540;42.136;24.742;2023-07-24T06:48:41;30.30;27.10
80230;DHT22;69540;42.136;24.742;2023-07-24T06:51:06;30.30;27.00
80230;DHT22;69540;42.136;24.742;2023-07-24T06:53:32;30.30;27.00
80230;DHT22;69540;42.136;24.742;2023-07-24T06:55:57;30.30;27.00
80230;DHT22;69540;42.136;24.742;2023-07-24T06:58:23;30.30;26.90
80230;DHT22;69540;42.136;24.742;2023-07-24T07:00:49;30.30;26.90
80230;DHT22;69540;42.136;24.742;2023-07-24T07:03:14;30.30;26.80
80230;DHT22;69540;42.136;24.742;2023-07-24T07:05:40;30.30;26.70
80230;DHT22;69540;42.136;24.742;2023-07-24T07:08:05;30.30;26.70
80230;DHT22;69540;42.136;24.742;2023-07-24T07:10:31;30.20;26.60
80230;DHT22;69540;42.136;24.742;2023-07-24T07:12:57;30.20;26.60
80230;DHT22;69540;42.136;24.742;2023-07-24T07:15:23;30.30;26.50
80230;DHT22;69540;42.136;24.742;2023-07-24T07:17:49;30.20;26.50
80230;DHT22;69540;42.136;24.742;2023-07-24T07:20:14;30.30;26.50
80230;DHT22;69540;42.136;24.742;2023-07-24T07:22:40;30.30;26.50
80230;DHT22;69540;42.136;24.742;2023-07-24T07:25:06;30.20;26.40
80230;DHT22;69540;42.136;24.742;2023-07-24T07:27:31;30.20;26.40
80230;DHT22;69540;42.136;24.742;2023-07-24T07:29:57;30.20;26.40
80230;DHT22;69540;42.136;24.742;2023-07-24T07:32:23;30.20;26.30
80230;DHT22;69540;42.136;24.742;2023-07-24T07:34:48;30.20;26.30
80230;DHT22;69540;42.136;24.742;2023-07-24T07:37:14;30.20;26.30
80230;DHT22;69540;42.136;24.742;2023-07-24T07:39:40;30.20;26.20
80230;DHT22;69540;42.136;24.742;2023-07-24T07:42:05;30.10;26.20
80230;DHT22;69540;42.136;24.742;2023-07-24T07:44:31;30.10;26.10
80230;DHT22;69540;42.136;24.742;2023-07-24T07:46:56;30.10;26.20
80230;DHT22;69540;42.136;24.742;2023-07-24T07:49:22;30.10;26.30
80230;DHT22;69540;42.136;24.742;2023-07-24T07:51:48;30.10;26.20
80230;DHT22;69540;42.136;24.742;2023-07-24T07:54:14;30.10;26.20
80230;DHT22;69540;42.136;24.742;2023-07-24T07:56:41;30.10;26.20
80230;DHT22;69540;42.136;24.742;2023-07-24T07:59:07;30.10;26.30
80230;DHT22;69540;42.136;24.742;2023-07-24T08:01:32;30.10;26.30
80230;DHT22;69540;42.136;24.742;2023-07-24T08:03:58;30.10;26.30
80230;DHT22;69540;42.136;24.742;2023-07-24T08:06:23;30.10;26.30
80230;DHT22;69540;42.136;24.742;2023-07-24T08:08:50;30.10;26.40
80230;DHT22;69540;42.136;24.742;2023-07-24T08:11:16;30.10;26.30
80230;DHT22;69540;42.136;24.742;2023-07-24T08:13:41;30.00;26.30
80230;DHT22;69540;42.136;24.742;2023-07-24T08:16:17;30.00;26.30
80230;DHT22;69540;42.136;24.742;2023-07-24T08:18:46;30.00;26.30
80230;DHT22;69540;42.136;24.742;2023-07-24T08:21:13;30.00;26.30
80230;DHT22;69540;42.136;24.742;2023-07-24T08:23:39;30.00;26.30
80230;DHT22;69540;42.136;24.742;2023-07-24T08:26:05;30.00;26.30
80230;DHT22;69540;42.136;24.742;2023-07-24T08:28:31;30.00;26.30
80230;DHT22;69540;42.136;24.742;2023-07-24T08:30:58;30.00;26.30
80230;DHT22;69540;42.136;24.742;2023-07-24T08:33:24;30.00;26.30
80230;DHT22;69540;42.136;24.742;2023-07-24T08:36:04;30.00;26.30
80230;DHT22;69540;42.136;24.742;2023-07-24T08:38:30;30.00;26.30
80230;DHT22;69540;42.136;24.742;2023-07-24T08:41:02;30.00;26.30
80230;DHT22;69540;42.136;24.742;2023-07-24T08:43:29;29.90;26.30
80230;DHT22;69540;42.136;24.742;2023-07-24T08:45:57;29.90;26.30
80230;DHT22;69540;42.136;24.742;2023-07-24T08:48:25;29.90;26.30
80230;DHT22;69540;42.136;24.742;2023-07-24T08:50:51;29.90;26.30
80230;DHT22;69540;42.136;24.742;2023-07-24T08:53:19;29.90;26.30
80230;DHT22;69540;42.136;24.742;2023-07-24T08:55:48;29.90;26.40
80230;DHT22;69540;42.136;24.742;2023-07-24T08:58:15;29.90;26.40
80230;DHT22;69540;42.136;24.742;2023-07-24T09:00:41;29.90;26.40
80230;DHT22;69540;42.136;24.742;2023-07-24T09:03:07;29.90;26.40
80230;DHT22;69540;42.136;24.742;2023-07-24T09:05:33;29.90;26.40
80230;DHT22;69540;42.136;24.742;2023-07-24T09:07:59;29.90;26.30
80230;DHT22;69540;42.136;24.742;2023-07-24T09:10:25;29.90;26.30
80230;DHT22;69540;42.136;24.742;2023-07-24T09:12:51;29.80;26.30
80230;DHT22;69540;42.136;24.742;2023-07-24T09:15:17;29.80;26.50
80230;DHT22;69540;42.136;24.742;2023-07-24T09:17:50;29.80;26.50
80230;DHT22;69540;42.136;24.742;2023-07-24T09:20:17;29.80;26.50
80230;DHT22;69540;42.136;24.742;2023-07-24T09:22:50;29.90;26.50
80230;DHT22;69540;42.136;24.742;2023-07-24T09:25:16;29.80;26.40
80230;DHT22;69540;42.136;24.742;2023-07-24T09:27:42;29.80;26.60
80230;DHT22;69540;42.136;24.742;2023-07-24T09:30:14;29.80;26.60
80230;DHT22;69540;42.136;24.742;2023-07-24T09:32:40;29.80;26.60
80230;DHT22;69540;42.136;24.742;2023-07-24T09:35:26;29.80;26.60
80230;DHT22;69540;42.136;24.742;2023-07-24T09:38:04;29.80;26.70
80230;DHT22;69540;42.136;24.742;2023-07-24T09:40:41;29.80;26.50
80230;DHT22;69540;42.136;24.742;2023-07-24T09:43:16;29.80;26.50
80230;DHT22;69540;42.136;24.742;2023-07-24T09:45:43;29.70;26.50
80230;DHT22;69540;42.136;24.742;2023-07-24T09:48:12;29.80;26.70
80230;DHT22;69540;42.136;24.742;2023-07-24T09:50:44;29.80;26.70
80230;DHT22;69540;42.136;24.742;2023-07-24T09:56:00;29.80;26.70
80230;DHT22;69540;42.136;24.742;2023-07-24T09:58:26;29.80;26.70
80230;DHT22;69540;42.136;24.742;2023-07-24T10:00:53;29.80;26.70
80230;DHT22;69540;42.136;24.742;2023-07-24T10:03:19;29.70;26.70
80230;DHT22;69540;42.136;24.742;2023-07-24T10:05:47;29.70;26.70
80230;DHT22;69540;42.136;24.742;2023-07-24T10:08:16;29.70;26.70
80230;DHT22;69540;42.136;24.742;2023-07-24T10:10:42;29.70;26.70
80230;DHT22;69540;42.136;24.742;2023-07-24T10:13:09;29.70;26.70
80230;DHT22;69540;42.136;24.742;2023-07-24T10:15:42;29.70;26.70
80230;DHT22;69540;42.136;24.742;2023-07-24T10:18:09;29.70;26.70
80230;DHT22;69540;42.136;24.742;2023-07-24T10:20:40;29.70;26.70
80230;DHT22;69540;42.136;24.742;2023-07-24T10:23:08;29.70;26.70
80230;DHT22;69540;42.136;24.742;2023-07-24T10:25:36;29.70;26.70
80230;DHT22;69540;42.136;24.742;2023-07-24T10:28:12;29.70;26.70
80230;DHT22;69540;42.136;24.742;2023-07-24T10:30:42;29.70;26.70
80230;DHT22;69540;42.136;24.742;2023-07-24T10:33:13;29.60;26.70
80230;DHT22;69540;42.136;24.742;2023-07-24T10:35:44;29.60;26.70
80230;DHT22;69540;42.136;24.742;2023-07-24T10:38:12;29.60;26.80
80230;DHT22;69540;42.136;24.742;2023-07-24T10:40:40;29.60;26.70
80230;DHT22;69540;42.136;24.742;2023-07-24T10:43:06;29.60;26.80
80230;DHT22;69540;42.136;24.742;2023-07-24T10:46:01;29.60;26.80
80230;DHT22;69540;42.136;24.742;2023-07-24T10:48:27;29.60;26.70
80230;DHT22;69540;42.136;24.742;2023-07-24T10:50:53;29.50;26.80
80230;DHT22;69540;42.136;24.742;2023-07-24T10:53:20;29.50;26.70
80230;DHT22;69540;42.136;24.742;2023-07-24T10:55:47;29.50;26.70
80230;DHT22;69540;42.136;24.742;2023-07-24T10:58:13;29.50;26.60
80230;DHT22;69540;42.136;24.742;2023-07-24T11:00:40;29.50;26.60
80230;DHT22;69540;42.136;24.742;2023-07-24T11:03:13;29.50;26.70
80230;DHT22;69540;42.136;24.742;2023-07-24T11:05:40;29.50;26.70
80230;DHT22;69540;42.136;24.742;2023-07-24T11:08:13;29.50;26.60
80230;DHT22;69540;42.136;24.742;2023-07-24T11:10:59;29.50;26.20
80230;DHT22;69540;42.136;24.742;2023-07-24T11:13:27;29.50;26.50
80230;DHT22;69540;42.136;24.742;2023-07-24T11:15:54;29.50;26.50
80230;DHT22;69540;42.136;24.742;2023-07-24T11:18:21;29.50;26.60
80230;DHT22;69540;42.136;24.742;2023-07-24T11:20:53;29.40;26.60
80230;DHT22;69540;42.136;24.742;2023-07-24T11:23:19;29.40;26.70
80230;DHT22;69540;42.136;24.742;2023-07-24T11:25:45;29.50;26.70
80230;DHT22;69540;42.136;24.742;2023-07-24T11:28:13;29.40;26.30
80230;DHT22;69540;42.136;24.742;2023-07-24T11:30:40;29.40;26.00
80230;DHT22;69540;42.136;24.742;2023-07-24T11:33:08;29.40;25.60
80230;DHT22;69540;42.136;24.742;2023-07-24T11:35:34;29.40;25.40
80230;DHT22;69540;42.136;24.742;2023-07-24T11:38:01;29.40;25.10
80230;DHT22;69540;42.136;24.742;2023-07-24T11:40:56;29.40;24.90
80230;DHT22;69540;42.136;24.742;2023-07-24T11:43:23;29.40;24.60
80230;DHT22;69540;42.136;24.742;2023-07-24T11:45:51;29.30;24.50
80230;DHT22;69540;42.136;24.742;2023-07-24T11:48:18;29.30;24.30
80230;DHT22;69540;42.136;24.742;2023-07-24T11:50:52;29.30;24.20
80230;DHT22;69540;42.136;24.742;2023-07-24T11:55:45;29.30;24.00
80230;DHT22;69540;42.136;24.742;2023-07-24T11:58:15;29.30;24.80
80230;DHT22;69540;42.136;24.742;2023-07-24T12:00:41;29.20;23.80
80230;DHT22;69540;42.136;24.742;2023-07-24T12:03:08;29.20;23.70
80230;DHT22;69540;42.136;24.742;2023-07-24T12:05:38;29.20;23.60
80230;DHT22;69540;42.136;24.742;2023-07-24T12:08:04;29.20;23.50
80230;DHT22;69540;42.136;24.742;2023-07-24T12:10:30;29.10;23.50
80230;DHT22;69540;42.136;24.742;2023-07-24T12:12:59;29.20;23.60
80230;DHT22;69540;42.136;24.742;2023-07-24T12:15:27;29.10;23.60
80230;DHT22;69540;42.136;24.742;2023-07-24T12:17:53;29.10;23.60
80230;DHT22;69540;42.136;24.742;2023-07-24T12:20:19;29.10;23.60
80230;DHT22;69540;42.136;24.742;2023-07-24T12:22:45;29.10;23.60
80230;DHT22;69540;42.136;24.742;2023-07-24T12:25:11;29.10;23.70
80230;DHT22;69540;42.136;24.742;2023-07-24T12:27:37;29.10;23.70
80230;DHT22;69540;42.136;24.742;2023-07-24T12:30:05;29.10;23.60
80230;DHT22;69540;42.136;24.742;2023-07-24T12:32:31;29.10;23.60
80230;DHT22;69540;42.136;24.742;2023-07-24T12:34:57;29.10;23.50
80230;DHT22;69540;42.136;24.742;2023-07-24T12:37:23;29.10;23.50
80230;DHT22;69540;42.136;24.742;2023-07-24T12:39:49;29.10;23.50
80230;DHT22;69540;42.136;24.742;2023-07-24T12:42:15;29.10;23.50
80230;DHT22;69540;42.136;24.742;2023-07-24T12:44:42;29.10;23.50
80230;DHT22;69540;42.136;24.742;2023-07-24T12:47:08;29.10;23.50
80230;DHT22;69540;42.136;24.742;2023-07-24T12:49:33;29.10;23.50
80230;DHT22;69540;42.136;24.742;2023-07-24T12:51:59;29.10;23.50
80230;DHT22;69540;42.136;24.742;2023-07-24T12:54:25;29.10;23.40
80230;DHT22;69540;42.136;24.742;2023-07-24T12:56:51;29.10;23.50
80230;DHT22;69540;42.136;24.742;2023-07-24T12:59:17;29.10;23.40
80230;DHT22;69540;42.136;24.742;2023-07-24T13:01:44;29.10;23.50
80230;DHT22;69540;42.136;24.742;2023-07-24T13:04:10;29.10;23.40
80230;DHT22;69540;42.136;24.742;2023-07-24T13:06:36;29.00;23.40
80230;DHT22;69540;42.136;24.742;2023-07-24T13:09:02;29.00;23.40
80230;DHT22;69540;42.136;24.742;2023-07-24T13:11:28;29.00;23.40
80230;DHT22;69540;42.136;24.742;2023-07-24T13:13:54;29.00;23.40
80230;DHT22;69540;42.136;24.742;2023-07-24T13:16:20;29.00;23.40
80230;DHT22;69540;42.136;24.742;2023-07-24T13:18:46;29.00;23.40
80230;DHT22;69540;42.136;24.742;2023-07-24T13:21:11;29.00;23.40
80230;DHT22;69540;42.136;24.742;2023-07-24T13:23:37;29.00;23.30
80230;DHT22;69540;42.136;24.742;2023-07-24T13:26:03;29.00;23.40
80230;DHT22;69540;42.136;24.742;2023-07-24T13:28:29;29.00;23.40
80230;DHT22;69540;42.136;24.742;2023-07-24T13:30:55;29.00;23.40
80230;DHT22;69540;42.136;24.742;2023-07-24T13:33:20;29.00;23.40
80230;DHT22;69540;42.136;24.742;2023-07-24T13:35:48;29.00;23.30
80230;DHT22;69540;42.136;24.742;2023-07-24T13:38:14;29.00;23.30
80230;DHT22;69540;42.136;24.742;2023-07-24T13:40:40;29.00;23.30
80230;DHT22;69540;42.136;24.742;2023-07-24T13:43:05;29.00;23.30
80230;DHT22;69540;42.136;24.742;2023-07-24T13:45:31;28.90;23.30
80230;DHT22;69540;42.136;24.742;2023-07-24T13:47:57;29.00;23.30
80230;DHT22;69540;42.136;24.742;2023-07-24T13:50:24;29.00;23.30
80230;DHT22;69540;42.136;24.742;2023-07-24T13:52:49;28.90;23.30
80230;DHT22;69540;42.136;24.742;2023-07-24T13:55:15;29.00;23.40
80230;DHT22;69540;42.136;24.742;2023-07-24T13:57:41;29.00;23.50
80230;DHT22;69540;42.136;24.742;2023-07-24T14:00:07;29.00;23.40
80230;DHT22;69540;42.136;24.742;2023-07-24T14:02:33;29.00;23.40
80230;DHT22;69540;42.136;24.742;2023-07-24T14:04:58;28.90;23.30
80230;DHT22;69540;42.136;24.742;2023-07-24T14:07:26;29.00;23.40
80230;DHT22;69540;42.136;24.742;2023-07-24T14:09:51;29.00;23.40
80230;DHT22;69540;42.136;24.742;2023-07-24T14:12:17;29.00;23.40
80230;DHT22;69540;42.136;24.742;2023-07-24T14:14:43;29.00;24.30
80230;DHT22;69540;42.136;24.742;2023-07-24T14:17:08;29.00;23.40
80230;DHT22;69540;42.136;24.742;2023-07-24T14:19:34;29.00;23.40
80230;DHT22;69540;42.136;24.742;2023-07-24T14:21:59;29.00;23.40
80230;DHT22;69540;42.136;24.742;2023-07-24T14:24:26;29.00;23.40
80230;DHT22;69540;42.136;24.742;2023-07-24T14:26:52;29.00;23.40
80230;DHT22;69540;42.136;24.742;2023-07-24T14:29:18;29.10;23.50
80230;DHT22;69540;42.136;24.742;2023-07-24T14:31:44;29.10;23.50
80230;DHT22;69540;42.136;24.742;2023-07-24T14:34:09;29.00;23.40
80230;DHT22;69540;42.136;24.742;2023-07-24T14:36:38;29.10;23.50
80230;DHT22;69540;42.136;24.742;2023-07-24T14:39:04;29.10;23.40
80230;DHT22;69540;42.136;24.742;2023-07-24T14:41:30;29.10;23.40
80230;DHT22;69540;42.136;24.742;2023-07-24T14:43:55;29.10;23.40
80230;DHT22;69540;42.136;24.742;2023-07-24T14:46:21;29.10;23.40
80230;DHT22;69540;42.136;24.742;2023-07-24T14:48:47;29.10;23.40
80230;DHT22;69540;42.136;24.742;2023-07-24T14:51:12;29.10;23.40
80230;DHT22;69540;42.136;24.742;2023-07-24T14:53:38;29.10;23.40
80230;DHT22;69540;42.136;24.742;2023-07-24T14:56:04;29.10;23.50
80230;DHT22;69540;42.136;24.742;2023-07-24T14:58:29;29.10;23.50
80230;DHT22;69540;42.136;24.742;2023-07-24T15:00:55;29.00;23.40
80230;DHT22;69540;42.136;24.742;2023-07-24T15:03:21;29.00;23.60
80230;DHT22;69540;42.136;24.742;2023-07-24T15:05:47;29.00;23.80
80230;DHT22;69540;42.136;24.742;2023-07-24T15:08:13;29.10;24.10
80230;DHT22;69540;42.136;24.742;2023-07-24T15:10:39;29.20;24.10
80230;DHT22;69540;42.136;24.742;2023-07-24T15:13:05;29.20;24.20
80230;DHT22;69540;42.136;24.742;2023-07-24T15:15:30;29.30;24.10
80230;DHT22;69540;42.136;24.742;2023-07-24T15:17:58;29.40;24.20
80230;DHT22;69540;42.136;24.742;2023-07-24T15:20:24;29.50;24.30